Time;durP1;ratioP1;P1;durP2;ratioP2;P2;SDS_P1;SDS_P2;PMS_P1;PMS_P2;Temp;Humidity;BMP_temperature;BMP_pressure;BME280_temperature;BME280_humidity;BME280_pressure;Samples;Min_cycle;Max_cycle;Signal;HPM_P1;HPM_P2
2022/03/02 00:01:40;;;;;;;112.95;41.42;;;5.40;99.90;;;;;;5125047;27;20043;-70
2022/03/02 00:04:05;;;;;;;119.65;42.38;;;5.40;99.90;;;;;;5112427;27;20045;-71
2022/03/02 00:06:31;;;;;;;116.00;42.33;;;5.40;99.90;;;;;;5093845;27;20039;-71
2022/03/02 00:08:57;;;;;;;111.05;40.75;;;5.40;99.90;;;;;;5111539;27;20039;-70
2022/03/02 00:11:23;;;;;;;120.70;42.00;;;5.40;99.90;;;;;;5110067;27;20044;-70
2022/03/02 00:13:48;;;;;;;116.57;41.83;;;5.40;99.90;;;;;;5094442;27;20027;-71
2022/03/02 00:16:14;;;;;;;115.25;41.97;;;5.40;99.90;;;;;;5111193;27;20088;-70
2022/03/02 00:18:40;;;;;;;117.65;41.75;;;5.40;99.90;;;;;;5111144;27;20450;-70
2022/03/02 00:21:06;;;;;;;116.28;41.85;;;5.40;99.90;;;;;;5111538;27;20042;-70
2022/03/02 00:23:32;;;;;;;116.15;40.78;;;5.40;99.90;;;;;;5111935;27;20042;-70
2022/03/02 00:25:57;;;;;;;115.43;41.92;;;5.40;99.90;;;;;;5110803;27;20055;-70
2022/03/02 00:28:24;;;;;;;117.07;41.38;;;5.30;99.90;;;;;;5111639;27;20035;-70
2022/03/02 00:30:50;;;;;;;119.40;41.33;;;5.30;99.90;;;;;;5110630;27;20402;-70
2022/03/02 00:33:17;;;;;;;116.95;41.03;;;5.30;99.90;;;;;;5110823;27;20039;-70
2022/03/02 00:35:42;;;;;;;114.30;41.10;;;5.30;99.90;;;;;;5109463;27;20042;-70
2022/03/02 00:38:10;;;;;;;114.97;41.15;;;5.30;99.90;;;;;;5110158;27;20080;-70
2022/03/02 00:40:37;;;;;;;112.28;39.60;;;5.30;99.90;;;;;;5110946;27;20065;-70
2022/03/02 00:43:04;;;;;;;114.55;39.50;;;5.30;99.90;;;;;;5110745;27;20043;-70
2022/03/02 00:45:31;;;;;;;114.63;40.00;;;5.40;99.90;;;;;;5111444;27;20508;-70
2022/03/02 00:47:58;;;;;;;114.55;41.28;;;5.40;99.90;;;;;;5109575;28;20493;-70
2022/03/02 00:50:24;;;;;;;115.45;41.70;;;5.40;99.90;;;;;;5108490;27;20228;-70
2022/03/02 00:52:50;;;;;;;121.55;42.50;;;5.30;99.90;;;;;;5111527;27;20122;-70
2022/03/02 00:55:16;;;;;;;120.70;41.78;;;5.30;99.90;;;;;;5110918;27;20118;-70
2022/03/02 00:57:41;;;;;;;118.28;42.70;;;5.30;99.90;;;;;;5110585;27;20131;-70
2022/03/02 01:00:08;;;;;;;119.60;42.97;;;5.30;99.90;;;;;;5108083;27;20069;-70
2022/03/02 01:02:34;;;;;;;120.70;41.28;;;5.30;99.90;;;;;;5109367;27;20351;-70
2022/03/02 01:05:00;;;;;;;127.07;44.28;;;5.30;99.90;;;;;;5111333;27;20100;-70
2022/03/02 01:07:25;;;;;;;119.00;42.88;;;5.20;99.90;;;;;;5109488;27;20035;-70
2022/03/02 01:09:51;;;;;;;124.22;43.95;;;5.20;99.90;;;;;;5110539;27;20035;-70
2022/03/02 01:12:17;;;;;;;127.20;43.10;;;5.20;99.90;;;;;;5110728;27;20073;-70
2022/03/02 01:14:43;;;;;;;127.80;43.90;;;5.20;99.90;;;;;;5110770;27;20228;-70
2022/03/02 01:17:08;;;;;;;117.07;42.97;;;5.20;99.90;;;;;;5110193;27;20066;-70
2022/03/02 01:19:35;;;;;;;119.80;42.47;;;5.20;99.90;;;;;;5093722;27;20039;-70
2022/03/02 01:22:01;;;;;;;117.95;42.78;;;5.20;99.90;;;;;;5110625;27;20047;-70
2022/03/02 01:24:26;;;;;;;134.55;43.47;;;5.20;99.90;;;;;;5109479;28;20035;-70
2022/03/02 01:26:52;;;;;;;116.28;38.30;;;5.20;99.90;;;;;;5110780;27;20386;-70
2022/03/02 01:29:17;;;;;;;117.03;37.88;;;5.20;99.90;;;;;;5109831;28;20036;-70
2022/03/02 01:31:43;;;;;;;108.55;35.60;;;5.30;99.90;;;;;;5110104;28;20063;-71
2022/03/02 01:34:08;;;;;;;119.57;37.97;;;5.30;99.90;;;;;;5111170;27;20035;-71
2022/03/02 01:36:34;;;;;;;118.47;38.05;;;5.30;99.90;;;;;;5111000;27;20043;-71
2022/03/02 01:39:00;;;;;;;115.20;40.42;;;5.40;99.90;;;;;;5110202;28;20035;-71
2022/03/02 01:41:25;;;;;;;108.47;34.63;;;5.30;99.90;;;;;;5093695;28;20035;-71
2022/03/02 01:43:53;;;;;;;122.20;39.97;;;5.30;99.90;;;;;;5104218;28;20031;-70
2022/03/02 01:46:19;;;;;;;108.65;38.47;;;5.30;99.90;;;;;;5110864;28;20039;-71
2022/03/02 01:48:45;;;;;;;115.88;38.95;;;5.30;99.90;;;;;;5111298;28;20425;-71
2022/03/02 01:51:12;;;;;;;121.00;40.70;;;5.30;99.90;;;;;;5107928;28;20031;-71
2022/03/02 01:53:38;;;;;;;113.35;38.42;;;5.30;99.90;;;;;;5108826;28;20027;-71
2022/03/02 01:56:04;;;;;;;131.43;42.83;;;5.30;99.90;;;;;;5111964;28;20285;-71
2022/03/02 01:58:30;;;;;;;123.30;42.03;;;5.20;99.90;;;;;;5111685;28;20365;-70
2022/03/02 02:00:59;;;;;;;121.60;42.78;;;5.20;99.90;;;;;;5111716;28;20035;-70
2022/03/02 02:03:25;;;;;;;136.63;45.13;;;5.10;99.90;;;;;;5111378;28;20049;-70
2022/03/02 02:05:52;;;;;;;134.23;44.20;;;5.10;99.90;;;;;;5110985;28;20480;-70
2022/03/02 02:08:17;;;;;;;132.75;45.15;;;5.00;99.90;;;;;;5112391;27;20070;-70
2022/03/02 02:10:43;;;;;;;130.98;44.42;;;5.00;99.90;;;;;;5105233;27;20079;-70
2022/03/02 02:13:09;;;;;;;132.73;45.88;;;5.00;99.90;;;;;;5116335;27;20047;-70
2022/03/02 02:15:35;;;;;;;129.07;45.72;;;5.00;99.90;;;;;;5113790;27;20126;-70
2022/03/02 02:18:00;;;;;;;135.43;44.05;;;4.90;99.90;;;;;;5116313;27;20058;-70
2022/03/02 02:20:26;;;;;;;135.73;44.42;;;4.90;99.90;;;;;;5099138;28;20043;-70
2022/03/02 02:22:52;;;;;;;135.45;44.25;;;4.90;99.90;;;;;;5107638;27;20054;-70
2022/03/02 02:25:19;;;;;;;134.30;44.75;;;4.90;99.90;;;;;;5115525;27;20405;-70
2022/03/02 02:27:46;;;;;;;129.25;44.70;;;4.90;99.90;;;;;;5110272;27;20065;-70
2022/03/02 02:30:15;;;;;;;127.13;43.35;;;4.90;99.90;;;;;;5114999;27;20118;-70
2022/03/02 02:32:41;;;;;;;133.00;46.35;;;4.90;99.90;;;;;;5115543;27;20043;-70
2022/03/02 02:35:09;;;;;;;128.98;44.47;;;4.90;99.90;;;;;;5115113;27;20099;-70
2022/03/02 02:37:36;;;;;;;137.38;45.75;;;4.90;99.90;;;;;;5115634;27;20121;-70
2022/03/02 02:40:08;;;;;;;133.18;46.53;;;4.90;99.90;;;;;;5113492;27;20060;-69
2022/03/02 02:42:34;;;;;;;138.40;46.67;;;4.80;99.90;;;;;;5115196;27;20050;-70
2022/03/02 02:45:00;;;;;;;137.82;46.42;;;4.90;99.90;;;;;;5114483;27;20396;-70
2022/03/02 02:47:26;;;;;;;130.00;45.97;;;4.80;99.90;;;;;;5115490;27;20057;-70
2022/03/02 02:49:51;;;;;;;145.82;47.20;;;4.80;99.90;;;;;;5115326;27;20051;-70
2022/03/02 02:52:17;;;;;;;133.35;44.72;;;4.80;99.90;;;;;;5116139;27;20049;-71
2022/03/02 02:54:43;;;;;;;128.70;44.08;;;4.80;99.90;;;;;;5114706;27;20042;-70
2022/03/02 02:57:09;;;;;;;129.13;43.05;;;4.70;99.90;;;;;;5115131;27;20039;-70
2022/03/02 02:59:35;;;;;;;123.82;43.15;;;4.80;99.90;;;;;;5111504;27;20035;-70
2022/03/02 03:02:01;;;;;;;122.95;41.22;;;4.90;99.90;;;;;;5115030;27;20400;-70
2022/03/02 03:04:26;;;;;;;129.07;41.65;;;4.90;99.90;;;;;;5097693;27;20045;-70
2022/03/02 03:06:52;;;;;;;125.60;42.53;;;4.90;99.90;;;;;;5115803;27;20043;-70
2022/03/02 03:09:17;;;;;;;117.53;40.05;;;4.90;99.90;;;;;;5115132;27;20237;-70
2022/03/02 03:11:43;;;;;;;124.25;40.20;;;4.90;99.90;;;;;;5115147;27;20070;-70
2022/03/02 03:14:10;;;;;;;125.25;41.13;;;4.90;99.90;;;;;;5115542;27;20142;-70
2022/03/02 03:16:36;;;;;;;131.82;44.58;;;4.90;99.90;;;;;;5115060;27;20095;-70
2022/03/02 03:19:03;;;;;;;137.10;44.92;;;4.90;99.90;;;;;;5106843;27;20032;-71
2022/03/02 03:21:29;;;;;;;138.45;45.08;;;4.80;99.90;;;;;;5116190;27;20049;-70
2022/03/02 03:23:54;;;;;;;129.50;44.95;;;4.80;99.90;;;;;;5115151;27;20489;-70
2022/03/02 03:26:20;;;;;;;135.70;46.10;;;4.80;99.90;;;;;;5112481;27;20039;-70
2022/03/02 03:28:46;;;;;;;138.65;45.70;;;4.80;99.90;;;;;;5112687;27;20077;-70
2022/03/02 03:31:11;;;;;;;140.40;46.75;;;4.80;99.90;;;;;;5113729;27;20481;-70
2022/03/02 03:33:37;;;;;;;140.15;46.13;;;4.80;99.90;;;;;;5112661;27;20370;-70
2022/03/02 03:36:02;;;;;;;133.20;46.00;;;4.80;99.90;;;;;;5114732;27;20070;-71
2022/03/02 03:38:28;;;;;;;136.93;47.53;;;4.80;99.90;;;;;;5113270;27;20126;-71
2022/03/02 03:40:54;;;;;;;135.35;46.60;;;4.80;99.90;;;;;;5113174;27;20047;-70
2022/03/02 03:43:19;;;;;;;137.80;46.38;;;4.80;99.90;;;;;;5097745;27;20126;-70
2022/03/02 03:45:45;;;;;;;135.23;45.80;;;4.80;99.90;;;;;;5114502;27;20039;-70
2022/03/02 03:48:11;;;;;;;128.77;43.63;;;4.80;99.90;;;;;;5113209;27;20417;-70
2022/03/02 03:50:36;;;;;;;136.75;42.42;;;4.80;99.90;;;;;;5114227;27;20035;-70
2022/03/02 03:53:02;;;;;;;133.20;44.97;;;4.90;99.90;;;;;;5114816;27;20031;-71
2022/03/02 03:55:28;;;;;;;132.77;40.78;;;4.90;99.90;;;;;;5113311;27;20033;-71
2022/03/02 03:57:54;;;;;;;121.93;40.55;;;4.90;99.90;;;;;;5114366;27;20035;-71
2022/03/02 04:00:20;;;;;;;137.93;46.35;;;4.90;99.90;;;;;;5113568;27;20391;-71
2022/03/02 04:02:46;;;;;;;138.98;45.78;;;4.90;99.90;;;;;;5113009;27;20038;-71
2022/03/02 04:05:12;;;;;;;135.23;45.17;;;4.80;99.90;;;;;;5113245;27;20363;-70
2022/03/02 04:07:38;;;;;;;136.48;46.83;;;4.80;99.90;;;;;;5111342;27;20375;-70
2022/03/02 04:10:06;;;;;;;143.77;48.13;;;4.80;99.90;;;;;;5114273;27;20038;-71
2022/03/02 04:12:32;;;;;;;148.48;47.00;;;4.70;99.90;;;;;;5096638;27;20034;-71
2022/03/02 04:14:57;;;;;;;150.30;48.80;;;4.70;99.90;;;;;;5112091;27;20376;-70
2022/03/02 04:17:23;;;;;;;145.55;46.70;;;4.70;99.90;;;;;;5112773;27;20046;-70
2022/03/02 04:19:49;;;;;;;145.57;48.13;;;4.70;99.90;;;;;;5110228;27;20486;-70
2022/03/02 04:22:15;;;;;;;143.43;48.55;;;4.60;99.90;;;;;;5112583;27;20081;-70
2022/03/02 04:24:41;;;;;;;150.70;48.55;;;4.70;99.90;;;;;;5112905;27;20087;-70
2022/03/02 04:27:07;;;;;;;159.80;50.97;;;4.60;99.90;;;;;;5111711;27;20507;-70
2022/03/02 04:29:32;;;;;;;151.38;47.50;;;4.60;99.90;;;;;;5111807;27;20042;-70
2022/03/02 04:31:58;;;;;;;140.00;47.90;;;4.60;99.90;;;;;;5112203;28;20381;-70
2022/03/02 04:34:24;;;;;;;153.38;48.53;;;4.60;99.90;;;;;;5112906;27;20284;-70
2022/03/02 04:36:49;;;;;;;147.60;47.33;;;4.60;99.90;;;;;;5112792;27;20031;-70
2022/03/02 04:39:15;;;;;;;153.95;49.28;;;4.60;99.90;;;;;;5111945;27;20485;-70
2022/03/02 04:41:40;;;;;;;158.55;50.90;;;4.60;99.90;;;;;;5113238;27;20397;-70
2022/03/02 04:44:06;;;;;;;159.25;50.60;;;4.50;99.90;;;;;;5109271;27;20077;-70
2022/03/02 04:46:32;;;;;;;159.27;50.90;;;4.60;99.90;;;;;;5112329;27;20028;-71
2022/03/02 04:48:57;;;;;;;159.98;50.00;;;4.50;99.90;;;;;;5112329;27;20035;-70
2022/03/02 04:51:23;;;;;;;150.27;50.00;;;4.50;99.90;;;;;;5095081;27;20112;-71
2022/03/02 04:53:50;;;;;;;157.23;49.95;;;4.50;99.90;;;;;;5111992;27;20126;-70
2022/03/02 04:56:16;;;;;;;157.48;50.45;;;4.50;99.90;;;;;;5110392;27;20072;-70
2022/03/02 04:58:41;;;;;;;159.40;50.53;;;4.50;99.90;;;;;;5110657;27;20517;-70
2022/03/02 05:01:07;;;;;;;162.25;51.30;;;4.40;99.90;;;;;;5112349;27;20035;-70
2022/03/02 05:03:33;;;;;;;160.40;53.00;;;4.40;99.90;;;;;;5111783;27;20465;-70
2022/03/02 05:05:58;;;;;;;163.02;51.88;;;4.40;99.90;;;;;;5111944;27;20035;-70
2022/03/02 05:08:24;;;;;;;150.90;49.58;;;4.30;99.90;;;;;;5110684;27;20135;-71
2022/03/02 05:10:50;;;;;;;157.82;50.08;;;4.30;99.90;;;;;;5110561;27;20066;-70
2022/03/02 05:13:15;;;;;;;162.07;52.22;;;4.30;99.90;;;;;;5111563;27;20043;-70
2022/03/02 05:15:41;;;;;;;157.27;49.50;;;4.20;99.90;;;;;;5111083;27;20042;-71
2022/03/02 05:18:06;;;;;;;157.50;50.85;;;4.20;99.90;;;;;;5109835;27;20031;-70
2022/03/02 05:20:32;;;;;;;158.15;51.17;;;4.10;99.90;;;;;;5110674;27;20038;-70
2022/03/02 05:22:58;;;;;;;166.25;51.28;;;4.00;99.90;;;;;;5111748;27;20043;-70
2022/03/02 05:25:26;;;;;;;164.80;51.17;;;3.90;99.90;;;;;;5111876;27;20481;-70
2022/03/02 05:27:51;;;;;;;158.23;50.30;;;3.90;99.90;;;;;;5109154;27;20035;-70
2022/03/02 05:30:18;;;;;;;164.68;52.47;;;3.90;99.90;;;;;;5107382;27;20046;-70
2022/03/02 05:32:44;;;;;;;168.82;51.45;;;3.80;99.90;;;;;;5111754;28;20039;-70
2022/03/02 05:35:09;;;;;;;169.95;51.60;;;3.70;99.90;;;;;;5111280;28;20099;-70
2022/03/02 05:37:42;;;;;;;170.35;50.40;;;3.60;99.90;;;;;;5110772;27;20034;-70
2022/03/02 05:40:08;;;;;;;;;;;3.60;99.90;;;;;;5111939;28;20124;-70
2022/03/02 05:42:33;;;;;;;169.38;50.92;;;3.50;99.90;;;;;;5111408;28;19923;-70
2022/03/02 05:44:59;;;;;;;166.55;51.80;;;3.50;99.90;;;;;;5115340;27;20043;-70
2022/03/02 05:47:24;;;;;;;168.00;51.90;;;3.40;99.90;;;;;;5118944;27;20063;-70
2022/03/02 05:49:50;;;;;;;151.07;49.67;;;3.40;99.90;;;;;;5102236;27;20091;-71
2022/03/02 05:52:18;;;;;;;165.57;51.55;;;3.30;99.90;;;;;;5118848;27;20472;-70
2022/03/02 05:54:44;;;;;;;169.98;50.78;;;3.20;99.90;;;;;;5116428;27;20030;-70
2022/03/02 05:57:09;;;;;;;167.48;51.10;;;3.20;99.90;;;;;;5116297;27;20121;-70
2022/03/02 05:59:35;;;;;;;166.15;50.13;;;3.10;99.90;;;;;;5117570;27;20039;-70
2022/03/02 06:02:00;;;;;;;178.73;54.35;;;3.10;99.90;;;;;;5118449;27;20091;-70
2022/03/02 06:04:26;;;;;;;170.27;50.95;;;3.10;99.90;;;;;;5117725;27;20051;-70
2022/03/02 06:06:51;;;;;;;157.35;51.38;;;3.00;99.90;;;;;;5118013;27;20043;-70
2022/03/02 06:09:17;;;;;;;167.15;51.60;;;3.00;99.90;;;;;;5115447;27;20047;-70
2022/03/02 06:11:43;;;;;;;168.90;51.67;;;3.00;99.90;;;;;;5117800;27;20564;-70
2022/03/02 06:14:10;;;;;;;167.77;51.65;;;3.10;99.90;;;;;;5118192;27;20034;-70
2022/03/02 06:16:36;;;;;;;176.10;52.83;;;3.00;99.90;;;;;;5117593;27;20466;-69
2022/03/02 06:19:02;;;;;;;158.52;51.50;;;2.90;99.90;;;;;;5116314;27;20046;-70
2022/03/02 06:21:29;;;;;;;167.70;51.92;;;2.90;99.90;;;;;;5118074;27;20473;-71
2022/03/02 06:23:56;;;;;;;170.70;53.40;;;3.00;99.90;;;;;;5118334;27;20118;-70
2022/03/02 06:26:23;;;;;;;166.70;51.97;;;3.00;99.90;;;;;;5116230;27;20044;-71
2022/03/02 06:28:49;;;;;;;164.93;51.85;;;2.90;99.90;;;;;;5115323;27;20080;-70
2022/03/02 06:31:14;;;;;;;169.73;52.97;;;2.90;99.90;;;;;;5115151;27;20050;-70
2022/03/02 06:33:40;;;;;;;166.75;53.20;;;2.90;99.90;;;;;;5117121;27;20027;-71
2022/03/02 06:36:06;;;;;;;178.30;51.95;;;2.90;99.90;;;;;;5117854;27;20092;-70
2022/03/02 06:38:32;;;;;;;175.95;51.63;;;2.90;99.90;;;;;;5115328;27;20042;-71
2022/03/02 06:41:02;;;;;;;169.70;53.20;;;2.90;99.90;;;;;;5118349;27;20397;-71
2022/03/02 06:43:42;;;;;;;174.95;52.65;;;2.90;99.90;;;;;;5117393;27;20043;-71
2022/03/02 06:46:16;;;;;;;163.32;50.47;;;2.90;99.90;;;;;;5117306;27;20039;-70
2022/03/02 06:48:53;;;;;;;172.05;51.05;;;2.90;99.90;;;;;;5115934;27;20389;-71
2022/03/02 06:51:24;;;;;;;170.35;51.55;;;2.90;99.90;;;;;;5116614;27;20044;-71
2022/03/02 06:53:51;;;;;;;180.30;52.13;;;2.90;99.90;;;;;;5117281;27;20035;-71
2022/03/02 06:56:21;;;;;;;173.82;52.42;;;2.90;99.90;;;;;;5113502;27;20032;-71
2022/03/02 06:58:52;;;;;;;170.07;52.25;;;2.90;99.90;;;;;;5095149;27;20043;-71
2022/03/02 07:01:31;;;;;;;163.40;49.97;;;2.90;99.90;;;;;;5110659;27;20043;-71
2022/03/02 07:03:59;;;;;;;164.73;50.55;;;2.80;99.90;;;;;;5108042;27;20459;-72
2022/03/02 07:06:27;;;;;;;166.70;50.40;;;2.90;99.90;;;;;;5113924;27;20043;-72
2022/03/02 07:08:54;;;;;;;165.18;48.03;;;2.90;99.90;;;;;;5111487;27;20035;-72
2022/03/02 07:11:21;;;;;;;142.63;40.20;;;2.90;99.90;;;;;;5112995;27;20035;-72
2022/03/02 07:13:49;;;;;;;126.25;36.03;;;3.00;99.90;;;;;;5112901;27;20039;-71
2022/03/02 07:16:17;;;;;;;109.90;30.70;;;3.10;99.90;;;;;;5114228;27;20118;-71
2022/03/02 07:18:43;;;;;;;95.53;27.20;;;3.40;99.90;;;;;;5113328;27;20039;-71
2022/03/02 07:21:14;;;;;;;134.15;38.35;;;3.40;99.90;;;;;;5114015;27;20031;-70
2022/03/02 07:23:54;;;;;;;159.02;45.17;;;3.50;99.90;;;;;;5095180;27;20525;-70
2022/03/02 07:26:21;;;;;;;144.32;41.90;;;3.50;99.90;;;;;;5113193;27;20035;-71
2022/03/02 07:28:48;;;;;;;150.85;42.90;;;3.50;99.90;;;;;;5111662;27;20381;-71
2022/03/02 07:31:14;;;;;;;162.60;45.70;;;3.50;99.90;;;;;;5113294;27;20062;-71
2022/03/02 07:33:42;;;;;;;177.60;50.25;;;3.60;99.90;;;;;;5113643;27;20043;-71
2022/03/02 07:36:09;;;;;;;164.52;44.97;;;3.60;99.90;;;;;;5111337;27;20039;-71
2022/03/02 07:38:35;;;;;;;167.25;50.58;;;3.60;99.90;;;;;;5111934;27;20035;-71
2022/03/02 07:41:07;;;;;;;166.77;48.92;;;3.70;99.90;;;;;;5097295;27;20431;-70
2022/03/02 07:43:36;;;;;;;173.10;50.80;;;3.70;99.90;;;;;;5107625;27;20039;-70
2022/03/02 07:46:02;;;;;;;168.65;51.83;;;3.70;99.90;;;;;;5115425;27;20042;-71
2022/03/02 07:48:27;;;;;;;185.23;51.55;;;3.80;99.90;;;;;;5114149;27;20413;-71
2022/03/02 07:50:55;;;;;;;174.45;53.30;;;3.80;99.90;;;;;;5095997;27;20080;-69
2022/03/02 07:53:26;;;;;;;175.02;51.13;;;3.90;99.90;;;;;;5113910;27;20553;-70
2022/03/02 07:55:53;;;;;;;184.15;55.17;;;4.00;99.90;;;;;;5113093;27;20443;-71
2022/03/02 07:58:20;;;;;;;181.23;54.83;;;4.10;99.90;;;;;;5108149;27;20043;-69
2022/03/02 08:00:51;;;;;;;173.05;53.70;;;4.00;99.90;;;;;;5108922;27;20035;-70
2022/03/02 08:03:19;;;;;;;175.17;51.40;;;4.00;99.90;;;;;;5109716;27;20039;-70
2022/03/02 08:05:45;;;;;;;185.40;53.20;;;4.00;99.90;;;;;;5112260;27;20451;-71
2022/03/02 08:08:11;;;;;;;170.27;50.83;;;4.00;99.90;;;;;;5113340;27;20046;-70
2022/03/02 08:10:36;;;;;;;168.13;51.67;;;4.00;99.90;;;;;;5112605;27;20035;-71
2022/03/02 08:13:02;;;;;;;176.05;50.97;;;3.90;99.90;;;;;;5109114;27;20043;-70
2022/03/02 08:15:29;;;;;;;172.50;52.00;;;3.80;99.90;;;;;;5110673;27;20035;-71
2022/03/02 08:17:55;;;;;;;167.60;51.08;;;3.80;99.90;;;;;;5112630;27;20031;-70
2022/03/02 08:20:20;;;;;;;174.45;53.00;;;3.80;99.90;;;;;;5111802;27;20454;-70
2022/03/02 08:22:51;;;;;;;170.93;49.88;;;3.70;99.90;;;;;;5112656;27;20050;-70
2022/03/02 08:25:21;;;;;;;161.68;49.72;;;3.60;99.90;;;;;;5110252;27;20043;-70
2022/03/02 08:27:49;;;;;;;167.93;50.40;;;3.60;99.90;;;;;;5112007;27;20795;-71
2022/03/02 08:30:16;;;;;;;175.70;49.25;;;3.50;99.90;;;;;;5111484;27;20043;-71
2022/03/02 08:32:43;;;;;;;166.75;47.85;;;3.50;99.90;;;;;;5112025;27;20145;-71
2022/03/02 08:35:11;;;;;;;163.30;49.33;;;3.50;99.90;;;;;;5112054;27;20079;-70
2022/03/02 08:37:37;;;;;;;169.15;51.67;;;3.40;99.90;;;;;;5112129;27;20370;-70
2022/03/02 08:40:05;;;;;;;155.02;48.30;;;3.50;99.90;;;;;;5113129;27;20167;-69
2022/03/02 08:42:32;;;;;;;170.05;47.05;;;3.70;99.90;;;;;;5110253;27;20035;-72
2022/03/02 08:44:58;;;;;;;164.00;46.90;;;3.80;99.90;;;;;;5112690;27;20073;-70
2022/03/02 08:47:24;;;;;;;156.13;48.10;;;4.10;99.90;;;;;;5126062;27;20121;-70
2022/03/02 08:49:54;;;;;;;163.90;47.55;;;4.30;99.90;;;;;;5109302;27;20492;-70
2022/03/02 08:52:26;;;;;;;143.95;45.05;;;4.50;99.90;;;;;;5111272;27;20087;-69
2022/03/02 08:54:53;;;;;;;155.40;44.80;;;4.60;99.90;;;;;;5095965;27;20045;-71
2022/03/02 08:57:18;;;;;;;147.05;44.95;;;4.80;99.90;;;;;;5110490;27;20634;-71
2022/03/02 08:59:44;;;;;;;149.68;46.30;;;4.80;99.90;;;;;;5111668;27;20031;-70
2022/03/02 09:02:10;;;;;;;143.05;45.28;;;5.00;99.90;;;;;;5131768;27;20419;-69
2022/03/02 09:04:37;;;;;;;140.77;42.55;;;5.00;99.90;;;;;;5112248;27;20039;-70
2022/03/02 09:07:04;;;;;;;151.73;45.85;;;5.10;99.90;;;;;;5107738;27;20042;-74
2022/03/02 09:09:30;;;;;;;152.25;46.47;;;5.20;99.90;;;;;;5106890;27;20402;-75
2022/03/02 09:11:56;;;;;;;136.05;44.95;;;5.20;99.90;;;;;;5110648;27;20441;-71
2022/03/02 09:14:22;;;;;;;123.80;40.30;;;5.30;99.90;;;;;;5112085;27;20385;-70
2022/03/02 09:16:48;;;;;;;143.38;45.55;;;5.30;99.90;;;;;;5112753;27;20042;-73
2022/03/02 09:19:14;;;;;;;129.25;42.17;;;5.40;99.90;;;;;;5112009;27;20031;-71
2022/03/02 09:21:44;;;;;;;140.07;43.30;;;5.50;99.90;;;;;;5108222;27;20035;-70
2022/03/02 09:24:11;;;;;;;141.95;43.10;;;5.50;99.90;;;;;;5110305;27;20063;-72
2022/03/02 09:26:38;;;;;;;139.75;44.55;;;5.60;99.90;;;;;;5114964;27;20034;-67
2022/03/02 09:29:06;;;;;;;141.18;42.05;;;5.70;99.90;;;;;;5111573;27;20043;-67
2022/03/02 09:31:34;;;;;;;142.00;43.05;;;5.80;99.90;;;;;;5130379;27;20043;-67
2022/03/02 09:34:04;;;;;;;129.27;41.78;;;5.90;99.90;;;;;;5112423;27;20035;-68
2022/03/02 09:36:36;;;;;;;139.48;42.28;;;5.90;99.90;;;;;;5128602;27;20036;-67
2022/03/02 09:39:05;;;;;;;141.70;44.15;;;6.00;99.90;;;;;;5126558;27;20459;-67
2022/03/02 09:41:42;;;;;;;141.63;42.97;;;6.00;99.90;;;;;;5107862;28;20162;-67
2022/03/02 09:44:11;;;;;;;137.00;42.72;;;5.90;99.90;;;;;;5111024;28;20051;-67
2022/03/02 09:46:38;;;;;;;139.25;42.50;;;5.90;99.90;;;;;;5106656;28;20053;-68
2022/03/02 09:49:09;;;;;;;149.60;43.78;;;5.80;99.90;;;;;;5106552;28;20039;-68
2022/03/02 09:51:36;;;;;;;151.32;46.45;;;5.80;99.90;;;;;;5110887;28;20300;-67
2022/03/02 09:54:04;;;;;;;144.40;46.05;;;5.90;99.90;;;;;;5108686;28;20099;-68
2022/03/02 09:56:35;;;;;;;137.07;42.67;;;6.00;99.90;;;;;;5108104;28;20126;-66
2022/03/02 09:59:04;;;;;;;128.73;39.95;;;6.20;99.90;;;;;;5110295;28;20039;-66
2022/03/02 10:01:32;;;;;;;133.90;43.70;;;6.30;99.90;;;;;;5110104;28;20138;-67
2022/03/02 10:04:17;;;;;;;139.90;44.55;;;6.40;99.90;;;;;;5111617;28;20039;-66
2022/03/02 10:06:44;;;;;;;128.15;42.78;;;6.60;99.90;;;;;;5112280;28;20043;-68
2022/03/02 10:09:11;;;;;;;130.43;42.17;;;6.70;99.90;;;;;;5093855;28;20097;-67
2022/03/02 10:11:43;;;;;;;131.77;41.22;;;6.90;99.90;;;;;;5108366;28;20126;-66
2022/03/02 10:14:09;;;;;;;132.30;42.35;;;7.00;99.90;;;;;;5111663;28;20130;-67
2022/03/02 10:16:44;;;;;;;131.13;42.58;;;7.20;99.90;;;;;;5111606;28;20150;-67
2022/03/02 10:19:21;;;;;;;124.03;40.35;;;7.30;99.90;;;;;;5111053;28;20327;-68
2022/03/02 10:21:57;;;;;;;113.65;38.78;;;7.30;99.90;;;;;;5111843;28;20489;-67
2022/03/02 10:24:24;;;;;;;115.40;37.28;;;7.50;99.90;;;;;;5103441;28;20470;-68
2022/03/02 10:26:52;;;;;;;114.40;39.78;;;7.60;99.90;;;;;;5111619;28;20043;-66
2022/03/02 10:29:34;;;;;;;95.13;31.85;;;7.70;99.90;;;;;;5129361;27;20074;-66
2022/03/02 10:32:13;;;;;;;101.65;33.80;;;7.70;99.90;;;;;;5114757;27;20084;-66
2022/03/02 10:35:00;;;;;;;92.93;30.92;;;7.80;99.90;;;;;;5114981;27;20459;-66
2022/03/02 10:37:36;;;;;;;92.78;30.27;;;8.00;99.90;;;;;;5114933;27;20061;-65
2022/03/02 10:40:17;;;;;;;97.18;34.15;;;8.00;99.90;;;;;;5112599;27;20043;-66
2022/03/02 10:42:54;;;;;;;94.93;32.63;;;8.10;99.90;;;;;;5112848;27;20050;-67
2022/03/02 10:45:29;;;;;;;97.72;34.00;;;8.20;99.90;;;;;;5114480;27;20051;-66
2022/03/02 10:48:22;;;;;;;101.45;33.25;;;8.20;99.90;;;;;;5114714;27;20103;-66
2022/03/02 10:50:51;;;;;;;88.05;30.65;;;8.30;99.90;;;;;;5113904;27;20129;-67
2022/03/02 10:53:19;;;;;;;86.18;29.63;;;8.30;99.90;;;;;;5114252;27;20046;-68
2022/03/02 10:55:47;;;;;;;96.13;31.55;;;8.40;99.90;;;;;;5113647;27;20042;-69
2022/03/02 10:58:16;;;;;;;80.63;26.65;;;8.40;99.90;;;;;;5115314;27;20062;-67
2022/03/02 11:00:42;;;;;;;90.50;32.28;;;8.60;99.90;;;;;;5132754;27;20042;-66
2022/03/02 11:03:08;;;;;;;92.72;32.80;;;8.60;99.90;;;;;;5097322;27;20404;-67
2022/03/02 11:05:35;;;;;;;92.30;31.85;;;8.70;99.90;;;;;;5111682;27;20122;-67
2022/03/02 11:08:02;;;;;;;88.47;30.75;;;8.70;99.90;;;;;;5117372;27;20039;-67
2022/03/02 11:10:40;;;;;;;88.38;31.40;;;8.80;99.90;;;;;;5112508;27;20055;-67
2022/03/02 11:13:11;;;;;;;86.55;30.75;;;8.90;99.90;;;;;;5114757;27;20043;-66
2022/03/02 11:15:44;;;;;;;84.55;29.95;;;9.00;99.90;;;;;;5114467;27;20426;-68
2022/03/02 11:18:10;;;;;;;89.45;30.58;;;9.00;99.90;;;;;;5114438;27;20099;-66
2022/03/02 11:20:35;;;;;;;89.32;31.50;;;9.00;99.90;;;;;;5114126;27;20055;-66
2022/03/02 11:23:05;;;;;;;96.53;31.33;;;9.00;99.90;;;;;;5114737;27;20031;-68
2022/03/02 11:25:49;;;;;;;90.82;31.42;;;9.00;99.90;;;;;;5105676;27;20058;-68
2022/03/02 11:28:18;;;;;;;88.03;30.25;;;9.10;99.90;;;;;;5098594;27;20474;-67
2022/03/02 11:30:51;;;;;;;91.65;30.58;;;9.20;99.90;;;;;;5095809;27;20443;-68
2022/03/02 11:33:22;;;;;;;88.20;30.27;;;9.10;99.90;;;;;;5106074;27;20694;-67
2022/03/02 11:35:48;;;;;;;87.00;30.08;;;9.20;99.90;;;;;;5114460;27;20500;-68
2022/03/02 11:38:19;;;;;;;90.50;31.60;;;9.30;99.90;;;;;;5114641;27;20110;-67
2022/03/02 11:40:47;;;;;;;84.90;30.63;;;9.40;99.90;;;;;;5101252;27;20039;-66
2022/03/02 11:43:22;;;;;;;84.57;29.85;;;9.40;99.90;;;;;;5111816;27;20047;-67
2022/03/02 11:45:50;;;;;;;80.10;28.77;;;9.40;99.90;;;;;;5111531;27;20043;-67
2022/03/02 11:48:16;;;;;;;81.78;28.80;;;9.40;99.90;;;;;;5112904;27;20043;-68
2022/03/02 11:51:02;;;;;;;82.43;27.55;;;9.50;99.90;;;;;;5113062;27;20046;-70
2022/03/02 11:53:37;;;;;;;83.18;29.60;;;9.50;95.70;;;;;;5113100;27;20123;-66
2022/03/02 11:56:05;;;;;;;89.38;29.80;;;9.60;99.90;;;;;;5113712;27;20043;-68
2022/03/02 11:59:09;;;;;;;91.25;28.80;;;9.70;99.90;;;;;;5113547;27;20080;-66
2022/03/02 12:01:38;;;;;;;83.38;29.08;;;9.70;99.90;;;;;;5102133;28;20456;-67
2022/03/02 12:04:04;;;;;;;85.05;31.38;;;9.80;99.90;;;;;;5112546;27;20038;-66
2022/03/02 12:06:42;;;;;;;81.10;29.15;;;9.80;99.90;;;;;;5105110;27;20043;-67
2022/03/02 12:09:08;;;;;;;90.75;29.27;;;9.90;99.90;;;;;;5112614;27;20070;-69
2022/03/02 12:11:38;;;;;;;87.65;31.13;;;9.90;99.90;;;;;;5113533;27;20093;-65
2022/03/02 12:14:09;;;;;;;85.63;31.65;;;9.90;99.90;;;;;;5113194;27;20043;-66
2022/03/02 12:16:46;;;;;;;82.03;30.63;;;9.80;97.70;;;;;;5112710;27;20122;-67
2022/03/02 12:19:38;;;;;;;90.00;30.65;;;9.90;99.90;;;;;;5111128;27;20362;-66
2022/03/02 12:22:05;;;;;;;84.55;31.00;;;9.80;94.10;;;;;;5109482;27;20047;-68
2022/03/02 12:24:33;;;;;;;80.13;30.90;;;9.90;99.90;;;;;;5131041;27;20039;-68
2022/03/02 12:27:07;;;;;;;82.47;29.23;;;9.90;99.90;;;;;;5111851;27;20121;-68
2022/03/02 12:29:34;;;;;;;80.80;28.65;;;9.90;99.90;;;;;;5111562;27;20031;-67
2022/03/02 12:32:10;;;;;;;85.30;30.45;;;9.90;93.90;;;;;;5131916;27;20073;-67